Time;durP1;ratioP1;P1;durP2;ratioP2;P2;SDS_P1;SDS_P2;PMS_P1;PMS_P2;Temp;Humidity;BMP_temperature;BMP_pressure;BME280_temperature;BME280_humidity;BME280_pressure;Samples;Min_cycle;Max_cycle;Signal;HPM_P1;HPM_P2
2021/08/01 00:06:56;;;;;;;0.83;0.63;;;18.90;99.90;;;;;;21159879;28;20574;-69
2021/08/01 00:17:01;;;;;;;0.20;0.10;;;18.60;99.90;;;;;;21107630;28;20728;-68
2021/08/01 00:27:05;;;;;;;0.20;0.10;;;18.60;99.90;;;;;;21109054;28;20226;-69
2021/08/01 00:37:10;;;;;;;1.20;0.37;;;18.70;99.90;;;;;;21108439;28;20852;-68
2021/08/01 00:47:14;;;;;;;0.20;0.10;;;18.60;99.90;;;;;;21133847;27;20219;-67
2021/08/01 00:57:19;;;;;;;0.20;0.10;;;18.80;99.90;;;;;;21206067;27;20679;-68
2021/08/01 01:07:27;;;;;;;0.20;0.20;;;19.10;99.90;;;;;;21207876;27;20242;-68
2021/08/01 01:17:34;;;;;;;0.63;0.37;;;19.10;99.90;;;;;;21207907;27;20191;-67
2021/08/01 01:27:44;;;;;;;0.20;0.20;;;19.10;99.90;;;;;;21204010;27;20715;-71
2021/08/01 01:37:50;;;;;;;0.97;0.43;;;18.70;99.90;;;;;;21206545;27;20551;-70
2021/08/01 01:47:53;;;;;;;0.60;0.30;;;18.50;99.90;;;;;;21203443;27;20583;-70
2021/08/01 01:57:58;;;;;;;0.63;0.20;;;18.50;99.90;;;;;;21202620;27;20283;-72
2021/08/01 02:08:03;;;;;;;0.43;0.40;;;18.50;99.90;;;;;;21030944;22;20361;-69
2021/08/01 02:18:11;;;;;;;0.30;0.23;;;18.60;99.90;;;;;;20947800;28;20201;-68
2021/08/01 02:28:15;;;;;;;1.07;0.30;;;18.70;99.90;;;;;;20947809;28;20232;-69
2021/08/01 02:38:21;;;;;;;5.73;0.53;;;18.50;99.90;;;;;;20954611;28;20193;-69
2021/08/01 02:48:28;;;;;;;0.20;0.00;;;18.50;99.90;;;;;;20958072;28;20490;-69
2021/08/01 02:58:35;;;;;;;0.30;0.10;;;18.60;99.90;;;;;;20944705;28;20193;-68
2021/08/01 03:08:38;;;;;;;0.20;0.00;;;18.50;99.90;;;;;;20959938;22;20232;-69
2021/08/01 03:18:43;;;;;;;0.43;0.23;;;18.60;99.90;;;;;;20923017;28;20193;-68
2021/08/01 03:28:47;;;;;;;0.20;0.10;;;18.70;99.90;;;;;;20941188;28;20223;-70
2021/08/01 03:38:52;;;;;;;0.20;0.20;;;18.80;99.90;;;;;;20935379;28;21046;-68
2021/08/01 03:48:55;;;;;;;0.20;0.00;;;18.90;99.90;;;;;;20939705;28;20228;-68
2021/08/01 04:09:21;;;;;;;0.70;0.53;;;18.80;99.90;;;;;;20691446;28;20234;-69
2021/08/01 04:19:26;;;;;;;0.20;0.10;;;18.80;99.90;;;;;;20729965;28;20202;-69
2021/08/01 04:29:30;;;;;;;0.20;0.10;;;18.80;99.90;;;;;;20713889;28;20687;-68
2021/08/01 04:39:35;;;;;;;0.60;0.20;;;18.60;99.90;;;;;;20709127;28;20195;-68
2021/08/01 04:49:39;;;;;;;0.63;0.53;;;18.80;99.90;;;;;;20708494;28;20238;-67
2021/08/01 04:59:43;;;;;;;1.03;0.70;;;18.80;99.90;;;;;;20707124;28;20582;-69
2021/08/01 05:09:47;;;;;;;0.30;0.10;;;18.70;99.90;;;;;;20706944;28;20227;-68
2021/08/01 05:19:52;;;;;;;0.50;0.50;;;18.70;99.90;;;;;;20685950;28;20249;-69
2021/08/01 05:29:55;;;;;;;0.20;0.00;;;18.70;99.90;;;;;;20703807;28;20238;-68
2021/08/01 05:40:00;;;;;;;0.40;0.40;;;18.90;99.90;;;;;;20702780;28;20203;-68
2021/08/01 05:50:05;;;;;;;0.20;0.20;;;18.90;99.90;;;;;;20704257;28;20237;-68
2021/08/01 06:00:11;;;;;;;0.57;0.27;;;19.10;99.90;;;;;;20701473;28;20237;-69
2021/08/01 06:10:16;;;;;;;0.30;0.20;;;18.80;99.90;;;;;;20701363;28;20235;-69
2021/08/01 06:20:21;;;;;;;1.40;1.03;;;18.80;99.90;;;;;;20702493;28;20201;-69
2021/08/01 06:30:25;;;;;;;0.63;0.50;;;18.90;99.90;;;;;;20698842;28;20638;-68
2021/08/01 06:40:30;;;;;;;0.23;0.10;;;19.00;99.90;;;;;;20698619;28;20572;-68
2021/08/01 06:50:35;;;;;;;0.20;0.00;;;19.10;99.90;;;;;;20697819;28;20226;-68
2021/08/01 07:00:40;;;;;;;0.63;0.63;;;19.20;99.90;;;;;;20698270;28;20235;-68
2021/08/01 07:10:43;;;;;;;0.20;0.20;;;19.60;99.90;;;;;;20696036;28;20229;-68
2021/08/01 07:20:48;;;;;;;0.33;0.33;;;20.10;99.90;;;;;;20698592;28;20509;-68
2021/08/01 07:30:52;;;;;;;0.20;0.20;;;20.40;99.90;;;;;;20704515;28;20233;-68
2021/08/01 07:41:01;;;;;;;0.30;0.30;;;20.50;99.90;;;;;;20717410;28;20194;-69
2021/08/01 07:51:05;;;;;;;3.17;0.97;;;20.20;99.90;;;;;;20699596;28;20584;-68
2021/08/01 08:01:10;;;;;;;0.20;0.20;;;20.10;99.90;;;;;;20695145;28;20240;-68
2021/08/01 08:11:14;;;;;;;0.20;0.20;;;20.50;99.90;;;;;;20610889;28;20769;-68
2021/08/01 08:21:19;;;;;;;3.60;0.73;;;20.80;99.90;;;;;;20612509;28;20199;-70
2021/08/01 08:31:24;;;;;;;0.20;0.10;;;21.00;99.90;;;;;;20611735;28;20784;-69
2021/08/01 08:41:30;;;;;;;0.20;0.07;;;21.50;99.90;;;;;;20624713;28;20218;-69
2021/08/01 08:51:36;;;;;;;0.30;0.20;;;22.50;99.90;;;;;;20610159;28;20231;-69
2021/08/01 09:01:41;;;;;;;1.90;0.97;;;22.10;99.90;;;;;;20629189;28;20230;-70
2021/08/01 09:11:45;;;;;;;0.40;0.27;;;22.70;99.90;;;;;;20703901;28;20242;-70
2021/08/01 09:21:50;;;;;;;0.40;0.23;;;22.80;99.90;;;;;;20704949;28;20213;-69
2021/08/01 09:31:59;;;;;;;0.40;0.27;;;22.90;99.90;;;;;;20704877;28;20692;-69
2021/08/01 09:42:05;;;;;;;0.20;0.20;;;23.40;99.90;;;;;;20703395;28;20217;-69
2021/08/01 09:52:08;;;;;;;0.20;0.10;;;23.70;99.90;;;;;;20700698;28;20222;-69
2021/08/01 10:02:17;;;;;;;0.20;0.10;;;23.80;99.90;;;;;;20700134;28;20685;-70
2021/08/01 10:12:21;;;;;;;0.20;0.20;;;24.80;99.90;;;;;;20699375;28;20693;-67
2021/08/01 10:22:28;;;;;;;0.20;0.15;;;25.00;99.90;;;;;;20698994;28;20202;-69
2021/08/01 10:32:36;;;;;;;0.80;0.40;;;25.40;99.90;;;;;;20698174;28;20223;-70
2021/08/01 10:42:45;;;;;;;0.50;0.40;;;25.50;99.90;;;;;;20697021;28;20187;-69
2021/08/01 10:52:49;;;;;;;1.08;0.40;;;25.80;99.90;;;;;;20697986;28;20760;-71
2021/08/01 11:03:17;;;;;;;1.10;1.00;;;26.20;99.90;;;;;;20693744;28;20242;-70
2021/08/01 11:13:41;;;;;;;0.55;0.43;;;26.40;99.90;;;;;;20614106;28;20222;-69
2021/08/01 11:24:09;;;;;;;0.50;0.30;;;26.40;99.90;;;;;;20615508;28;20207;-72
2021/08/01 11:34:21;;;;;;;1.15;0.70;;;27.30;99.90;;;;;;20613571;28;20294;-70
2021/08/01 11:44:26;;;;;;;0.30;0.25;;;27.90;99.90;;;;;;20596606;28;20195;-69
2021/08/01 11:54:31;;;;;;;0.55;0.55;;;28.20;99.90;;;;;;20610242;28;20227;-71
2021/08/01 12:04:36;;;;;;;0.47;0.43;;;28.20;99.90;;;;;;20623468;28;20219;-69
2021/08/01 12:14:42;;;;;;;3.28;1.30;;;29.50;99.90;;;;;;20691331;28;20230;-68
2021/08/01 12:24:48;;;;;;;4.20;0.93;;;29.40;99.90;;;;;;20686223;28;20654;-68
2021/08/01 12:34:53;;;;;;;1.95;0.45;;;30.10;99.90;;;;;;20692191;28;20226;-67
2021/08/01 12:44:59;;;;;;;0.55;0.38;;;29.30;99.90;;;;;;20704132;28;20681;-69
2021/08/01 12:55:08;;;;;;;0.57;0.57;;;30.10;99.90;;;;;;20707612;28;20604;-69
2021/08/01 13:05:22;;;;;;;1.58;1.48;;;29.90;99.90;;;;;;20684578;28;20226;-67
2021/08/01 13:15:27;;;;;;;1.27;1.02;;;29.90;99.90;;;;;;20702402;28;20593;-68
2021/08/01 13:25:37;;;;;;;0.73;0.65;;;29.80;99.90;;;;;;20685267;28;20685;-67
2021/08/01 13:35:40;;;;;;;1.52;0.40;;;31.10;99.90;;;;;;20703858;28;20233;-67
2021/08/01 13:45:45;;;;;;;3.00;2.13;;;31.00;99.90;;;;;;20702845;28;20199;-68
2021/08/01 13:55:51;;;;;;;0.75;0.40;;;31.30;99.90;;;;;;20702212;28;20229;-68
2021/08/01 14:05:56;;;;;;;0.63;0.40;;;31.60;99.90;;;;;;20701333;28;20242;-70
2021/08/01 14:16:00;;;;;;;0.45;0.32;;;32.30;99.90;;;;;;20701315;28;20254;-69
2021/08/01 14:26:05;;;;;;;0.47;0.28;;;32.80;99.90;;;;;;20681511;28;20206;-67
2021/08/01 14:36:11;;;;;;;0.57;0.38;;;33.20;99.90;;;;;;20699930;28;20242;-69
2021/08/01 14:46:16;;;;;;;1.50;0.30;;;33.00;99.90;;;;;;20697550;28;20568;-67
2021/08/01 14:56:23;;;;;;;0.50;0.45;;;32.80;99.90;;;;;;20696725;28;21068;-67
2021/08/01 15:06:36;;;;;;;0.55;0.35;;;31.90;99.90;;;;;;20693578;28;20241;-70
2021/08/01 15:16:42;;;;;;;0.68;0.68;;;32.20;99.90;;;;;;20688119;28;20223;-67
2021/08/01 15:26:48;;;;;;;1.17;0.50;;;32.50;99.90;;;;;;20695333;28;20202;-67
2021/08/01 15:36:52;;;;;;;0.30;0.30;;;31.50;99.90;;;;;;20702995;28;20228;-66
2021/08/01 15:47:00;;;;;;;1.08;0.70;;;33.20;99.90;;;;;;20693936;28;20681;-68
2021/08/01 15:57:06;;;;;;;0.52;0.50;;;31.80;99.90;;;;;;20694068;28;20222;-67
2021/08/01 16:07:13;;;;;;;0.55;0.30;;;31.70;99.90;;;;;;20690858;28;20277;-67
2021/08/01 16:17:27;;;;;;;0.20;0.10;;;31.60;99.90;;;;;;20701974;28;20242;-68
2021/08/01 16:27:33;;;;;;;0.52;0.28;;;29.70;99.90;;;;;;20709341;28;20217;-66
2021/08/01 16:37:37;;;;;;;0.38;0.15;;;28.20;99.90;;;;;;20707540;28;20252;-67
2021/08/01 16:47:49;;;;;;;0.40;0.20;;;27.80;99.90;;;;;;20708603;28;20203;-69
2021/08/01 16:58:03;;;;;;;0.47;0.47;;;27.40;99.90;;;;;;20704022;28;20308;-68
2021/08/01 17:08:11;;;;;;;1.77;0.55;;;27.40;99.90;;;;;;20686800;28;20226;-68
2021/08/01 17:18:17;;;;;;;1.13;0.60;;;27.90;99.90;;;;;;20704653;28;21974;-68
2021/08/01 17:28:21;;;;;;;1.02;0.63;;;29.40;99.90;;;;;;20659225;28;20772;-69
2021/08/01 17:38:32;;;;;;;0.52;0.30;;;29.70;99.90;;;;;;20700564;28;20226;-69
2021/08/01 17:48:38;;;;;;;2.58;0.73;;;30.00;99.90;;;;;;20702573;28;20465;-68
2021/08/01 17:58:43;;;;;;;1.75;0.90;;;29.90;99.90;;;;;;20699694;28;20538;-66
2021/08/01 18:09:01;;;;;;;0.43;0.25;;;29.20;99.90;;;;;;20700642;28;20968;-67
2021/08/01 18:19:07;;;;;;;0.30;0.22;;;27.50;99.90;;;;;;20717076;28;20206;-68
2021/08/01 18:29:14;;;;;;;2.10;0.38;;;26.30;99.90;;;;;;20695235;28;20195;-69
2021/08/01 18:39:18;;;;;;;0.45;0.32;;;26.00;99.90;;;;;;20696603;28;20206;-68
2021/08/01 18:49:24;;;;;;;2.92;0.50;;;25.50;99.90;;;;;;20696389;28;20554;-67
2021/08/01 18:59:28;;;;;;;0.30;0.30;;;25.00;99.90;;;;;;20696500;28;20210;-67
2021/08/01 19:09:33;;;;;;;1.35;0.95;;;24.80;99.90;;;;;;20724888;28;20230;-68
2021/08/01 19:19:39;;;;;;;0.95;0.35;;;24.70;99.90;;;;;;20694980;28;20573;-67
2021/08/01 19:29:44;;;;;;;1.42;0.75;;;24.50;99.90;;;;;;20696345;28;20214;-69
2021/08/01 19:39:50;;;;;;;0.47;0.40;;;24.30;99.90;;;;;;20674298;28;20265;-67
2021/08/01 19:49:55;;;;;;;0.80;0.70;;;24.20;99.90;;;;;;20693877;28;20233;-69
2021/08/01 19:59:59;;;;;;;0.40;0.37;;;24.20;99.90;;;;;;20676568;28;20249;-69
2021/08/01 20:10:04;;;;;;;0.20;0.10;;;24.00;99.90;;;;;;20691384;28;20717;-67
2021/08/01 20:20:10;;;;;;;0.60;0.40;;;23.20;99.90;;;;;;20692954;28;20206;-67
2021/08/01 20:30:16;;;;;;;0.60;0.40;;;23.10;99.90;;;;;;20692645;28;20207;-68
2021/08/01 20:40:19;;;;;;;3.23;0.60;;;23.00;99.90;;;;;;20609097;28;20996;-68
2021/08/01 20:50:24;;;;;;;0.20;0.20;;;22.80;99.90;;;;;;20609827;28;20242;-70
2021/08/01 21:00:28;;;;;;;2.20;0.97;;;22.70;99.90;;;;;;20612332;28;20766;-70
2021/08/01 21:10:33;;;;;;;0.87;0.40;;;22.50;99.90;;;;;;20682693;28;20250;-68
2021/08/01 21:20:38;;;;;;;0.87;0.53;;;22.40;99.90;;;;;;20706693;28;20317;-68
2021/08/01 21:30:43;;;;;;;0.80;0.80;;;22.20;99.90;;;;;;20701892;28;20219;-69
2021/08/01 21:40:48;;;;;;;0.50;0.43;;;22.30;99.90;;;;;;20703753;28;20222;-69
2021/08/01 21:50:53;;;;;;;1.40;0.73;;;22.30;99.90;;;;;;20701439;28;20229;-69
2021/08/01 22:01:01;;;;;;;0.77;0.63;;;22.20;99.90;;;;;;20701551;28;20709;-70
2021/08/01 22:11:06;;;;;;;1.00;0.70;;;22.20;99.90;;;;;;20698467;28;20303;-69
2021/08/01 22:21:11;;;;;;;0.43;0.40;;;22.20;99.90;;;;;;20700906;28;20206;-69
2021/08/01 22:31:19;;;;;;;1.33;0.53;;;22.30;99.90;;;;;;20699675;28;20281;-70
2021/08/01 22:41:22;;;;;;;0.20;0.13;;;22.50;99.90;;;;;;20696122;28;20201;-70
2021/08/01 22:51:28;;;;;;;0.50;0.30;;;22.50;99.90;;;;;;20698097;28;20230;-68
2021/08/01 23:01:37;;;;;;;0.40;0.40;;;22.50;99.90;;;;;;20696727;28;20321;-70
2021/08/01 23:11:50;;;;;;;0.43;0.17;;;21.90;99.90;;;;;;20696811;28;20250;-70
2021/08/01 23:21:57;;;;;;;0.20;0.10;;;21.90;99.90;;;;;;20696051;28;20203;-71
2021/08/01 23:32:07;;;;;;;0.57;0.57;;;21.90;99.90;;;;;;20715874;28;20229;-70
2021/08/01 23:42:13;;;;;;;0.70;0.20;;;21.70;99.90;;;;;;20698294;28;20201;-69
2021/08/01 23:52:28;;;;;;;3.70;0.60;;;21.60;99.90;;;;;;20690995;28;20595;-68
